Main page
METAR-TAF:

METAR-TAF

Airports :

Oil platform Norsk Hydro

Oseberg, Norway

latitude: 60-29-29N, longitude: 2-49-32E, elevation: 158 m

Current weather observation

The report was made 1 hour and 3 minutes ago, at 03:50 UTC
Wind 4 kt from the East/Southeast, varying between East/Northeast and South/Southeast
Temperature 6°C
Humidity 87%
Pressure 1027 hPa
Visibility 10 km or more
no clouds below 1500 m and no cumulonimbus

METAR: ENOA 210350Z 12004KT 070V160 CAVOK 06/04 Q1027 W///S/

Time: 05:53 (04:53 UTC)

Forecast

Forecast valid from 21 at 03 UTC to 22 at 03 UTC
Wind 5 kt from variable directions
Visibility 10 km or more
Few clouds at a height of 1000 ft
Temporary
from 21 at 03 UTC to 21 at 18 UTC
Broken clouds at a height of 800 ft

TAF: ENOA 2103/2203 VRB05KT 9999 FEW010 TEMPO 2103/2118 BKN008

Weather observations and forecasts of more than 4000 airports (METAR and TAF reports).

The available stations are represented by yellow and red dots on the map.

Hover mouse over dot to see the name of the station.

Then click to see weather observations and forecasts.

To change the map : click on the green buttons with a black cross to zoom in, on the green button with a dash to zoom out, or on the green arrows for adjacent maps.


METAR-TAF: